Aérodrome :
LOGIN :

S'inscrire | Disclaimer

   EN    FR    IT 

 










Légende :    VFR   VFR Marginal   IFR   IFR Intensif   IFR Très Intensif
Visi : 
Plafond : 
>= 8 km
>= 3000ft
5 à 8 km
1000 à 3000 ft
1500m à 5 km
500 à 1000 ft
800 à 1500m
200 à 500 ft
< 800m
< 200 ft
Symboles :   Orages  Brouillard  Fortes neiges  Fortes précipitations  Vent > 20 kt
SIGMETs :   Divers  Orages  Givrage  Turbulence  Onde Orograph.  Cendres Volcan.






- Altitude de l'aérodrome : 1260 ft
- Code IATA : LDE


LFBT - Tarbes / Ossun

DERNIER METAR :
  • 032000Z AUTO 26008KT 210V290 9999 SCT016 BKN023 BKN034 17/14 Q1007 NOSIG

METARs EXPIRÉS :
  • 031930Z AUTO 26010KT 9999 BKN021 BKN030 OVC040 17/14 Q1007 NOSIG
  • 031900Z AUTO 26010KT 9999 FEW017 BKN031 OVC037 17/15 Q1007 NOSIG
  • 031830Z AUTO 27009KT 230V290 9999 BKN013 BKN019 OVC027 17/15 Q1007 BECMG NSC
  • 031800Z AUTO 27007KT 230V300 9999 BKN013 OVC025 18/15 Q1007 TEMPO 4000 SHRA BKN020 SCT030CB
  • 031730Z AUTO 27009KT 9999 BKN013 BKN022 OVC029 18/15 Q1007 TEMPO 4000 SHRA BKN020 SCT030CB

TAF AMD TAF LFBT
Valide du 03 à 18h jusqu'au 04 à 18h UTC


031817Z 0318/0418 26007KT 9999 BKN013 SCT050TCU BKN070
PROB30
TEMPO 0318/0319 4000 SHRA BKN020 SCT030CB
BECMG 0319/0321 CAVOK
BECMG 0407/0409 SCT035TCU
TEMPO 0410/0418 30020G35KT 4000 SHRA BKN020 SCT030CB
PROB40
TEMPO 0411/0417 2000 TSRA BKN013 BKN020CB



MET'MAP, la Météo Aéronautique d'un coup d'oeil ! - Copyright ORBIFLY Décembre 2007 - Disclaimer

ORBIFLY MET'MAP TEAM :

Programmation & Développement : Alexandra Zaïnal
Sur une idée originale de : Baudouin d'Aumeries
Assistance à la programmation : Marc-Olivier Méhu
Soutien technique & logistique : Manuel Goepfert

Contact : metmap@orbifly.com




SOURCES & CREDITS :

   NOAA